Terminal Aerodrome Forecast
Issued by NWS Wilmington, NC

Home | Current Version | Previous Version | Text Only | Print | Product List | Glossary On
Versions: 1 2 3 4 5 6 7 8 9 10 11 12 13 14 15 16 17 18 19 20 21
000
FTUS42 KILM 020500
TAFILM
TAF
KILM 020532Z 0206/0306 26004KT 2SM BR OVC003
      TEMPO 0206/0210 1/2SM FG VV002
     FM021500 27007KT P6SM BKN020 BKN050
     FM022000 02008KT P6SM VCSH BKN010=

USA.gov is the U.S. government's official web portal to all federal, state and local government web resources and services.